Time;durP1;ratioP1;P1;durP2;ratioP2;P2;SDS_P1;SDS_P2;PMS_P1;PMS_P2;Temp;Humidity;BMP_temperature;BMP_pressure;BME280_temperature;BME280_humidity;BME280_pressure;Samples;Min_cycle;Max_cycle;Signal;HPM_P1;HPM_P2
2023/02/10 00:02:25;;;;;;;;;;;2.10;99.90;;;;;;5054481;28;19987;-68
2023/02/10 00:04:51;;;;;;;;;;;2.10;99.90;;;;;;5052897;28;19928;-68
2023/02/10 00:07:18;;;;;;;;;;;2.00;99.90;;;;;;5053571;28;19994;-67
2023/02/10 00:09:47;;;;;;;;;;;2.00;99.90;;;;;;5053434;28;19925;-67
2023/02/10 00:12:13;;;;;;;;;;;2.00;99.90;;;;;;5053128;28;20035;-67
2023/02/10 00:14:40;;;;;;;;;;;1.90;99.90;;;;;;5051642;28;20011;-67
2023/02/10 00:17:06;;;;;;;;;;;1.90;99.90;;;;;;5051839;28;19940;-67
2023/02/10 00:19:33;;;;;;;;;;;1.90;99.90;;;;;;5052125;28;19933;-67
2023/02/10 00:22:00;;;;;;;;;;;1.90;99.90;;;;;;5054337;28;19928;-68
2023/02/10 00:24:27;;;;;;;;;;;1.90;99.90;;;;;;5055861;28;20029;-67
2023/02/10 00:26:55;;;;;;;;;;;1.80;99.90;;;;;;5051123;28;19962;-67
2023/02/10 00:29:21;;;;;;;;;;;1.80;99.90;;;;;;5050124;28;19971;-67
2023/02/10 00:31:48;;;;;;;;;;;1.80;99.90;;;;;;5053211;28;19952;-67
2023/02/10 00:34:16;;;;;;;;;;;1.80;99.90;;;;;;5052323;28;19932;-67
2023/02/10 00:36:43;;;;;;;;;;;1.70;99.90;;;;;;5051868;28;20011;-67
2023/02/10 00:39:12;;;;;;;;;;;1.70;99.90;;;;;;5052739;28;20332;-68
2023/02/10 00:41:39;;;;;;;;;;;1.60;99.90;;;;;;5055705;28;20037;-67
2023/02/10 00:44:07;;;;;;;;;;;1.60;99.90;;;;;;5050204;28;19940;-67
2023/02/10 00:46:34;;;;;;;;;;;1.60;99.90;;;;;;5054379;28;19932;-67
2023/02/10 00:49:00;;;;;;;;;;;1.60;99.90;;;;;;5051865;28;19928;-67
2023/02/10 00:51:27;;;;;;;;;;;1.60;99.90;;;;;;5052029;28;19942;-67
2023/02/10 00:53:54;;;;;;;;;;;1.60;99.90;;;;;;5052318;28;19948;-67
2023/02/10 00:56:21;;;;;;;;;;;1.60;99.90;;;;;;5051831;28;19928;-67
2023/02/10 00:58:48;;;;;;;;;;;1.60;99.90;;;;;;5050182;28;19928;-68
2023/02/10 01:01:19;;;;;;;;;;;1.60;99.90;;;;;;5052364;28;19932;-67
2023/02/10 01:03:46;;;;;;;;;;;1.50;99.90;;;;;;5051077;28;19940;-68
2023/02/10 01:06:14;;;;;;;;;;;1.50;99.90;;;;;;5052783;28;20023;-67
2023/02/10 01:08:41;;;;;;;;;;;1.40;99.90;;;;;;5051126;28;20295;-67
2023/02/10 01:11:08;;;;;;;;;;;1.40;99.90;;;;;;5051759;28;20294;-67
2023/02/10 01:13:36;;;;;;;;;;;1.30;99.90;;;;;;5052857;28;19933;-67
2023/02/10 01:16:05;;;;;;;;;;;1.30;99.90;;;;;;5051286;28;19933;-67
2023/02/10 01:18:33;;;;;;;;;;;1.30;99.90;;;;;;5051986;28;19924;-67
2023/02/10 01:21:00;;;;;;;;;;;1.30;99.90;;;;;;5051238;28;19929;-67
2023/02/10 01:23:26;;;;;;;;;;;1.20;99.90;;;;;;5048394;28;20097;-66
2023/02/10 01:25:53;;;;;;;;;;;1.20;99.90;;;;;;5050498;28;19924;-67
2023/02/10 01:28:20;;;;;;;;;;;1.10;99.90;;;;;;5049933;28;19952;-67
2023/02/10 01:30:46;;;;;;;;;;;1.10;99.90;;;;;;5052006;28;19932;-66
2023/02/10 01:33:16;;;;;;;;;;;1.00;99.90;;;;;;5052452;28;19933;-67
2023/02/10 01:35:44;;;;;;;;;;;1.00;99.90;;;;;;5052291;28;20539;-67
2023/02/10 01:38:11;;;;;;;;;;;1.00;99.90;;;;;;5050164;28;19925;-67
2023/02/10 01:40:38;;;;;;;;;;;0.90;99.90;;;;;;5050509;28;20415;-67
2023/02/10 01:43:10;;;;;;;;;;;1.00;99.90;;;;;;5050492;28;20421;-67
2023/02/10 01:45:38;;;;;;;;;;;0.90;99.90;;;;;;5051868;28;19932;-68
2023/02/10 01:48:06;;;;;;;;;;;0.90;99.90;;;;;;5050022;28;19932;-66
2023/02/10 01:50:35;;;;;;;;;;;0.90;99.90;;;;;;5050609;28;19928;-65
2023/02/10 01:53:05;;;;;;;;;;;0.80;99.90;;;;;;5050180;28;19925;-66
2023/02/10 01:55:34;;;;;;;;;;;0.90;99.90;;;;;;5049756;28;19950;-66
2023/02/10 01:58:02;;;;;;;;;;;0.80;99.90;;;;;;5050153;28;19936;-66
2023/02/10 02:00:29;;;;;;;;;;;0.90;99.90;;;;;;5050585;28;19935;-67
2023/02/10 02:02:56;;;;;;;;;;;0.80;99.90;;;;;;5051746;28;19928;-66
2023/02/10 02:05:28;;;;;;;;;;;0.80;99.90;;;;;;5049633;28;19928;-66
2023/02/10 02:07:56;;;;;;;;;;;0.80;99.90;;;;;;5048956;28;19974;-67
2023/02/10 02:10:28;;;;;;;;;;;0.80;99.90;;;;;;5048752;28;20032;-67
2023/02/10 02:12:58;;;;;;;;;;;0.70;99.90;;;;;;5046534;28;19944;-66
2023/02/10 02:15:28;;;;;;;;;;;0.80;99.90;;;;;;5047743;28;20502;-67
2023/02/10 02:18:00;;;;;;;;;;;0.80;99.90;;;;;;5051151;28;19928;-68
2023/02/10 02:20:43;;;;;;;;;;;0.80;99.90;;;;;;5050258;28;20074;-67
2023/02/10 02:23:16;;;;;;;;;;;0.90;99.90;;;;;;5050743;28;20335;-67
2023/02/10 02:25:57;;;;;;;;;;;0.90;99.90;;;;;;5049513;28;19944;-67
2023/02/10 02:28:25;;;;;;;;;;;1.00;99.90;;;;;;5049542;28;19928;-66
2023/02/10 02:31:07;;;;;;;;;;;1.00;99.90;;;;;;5050236;28;19929;-67
2023/02/10 02:33:38;;;;;;;;;;;1.00;99.90;;;;;;5049769;28;20036;-66
2023/02/10 02:36:08;;;;;;;;;;;1.10;99.90;;;;;;5049314;28;20392;-66
2023/02/10 02:38:38;;;;;;;;;;;1.20;99.90;;;;;;5048712;28;20391;-66
2023/02/10 02:41:04;;;;;;;;;;;1.20;99.90;;;;;;5050757;28;19955;-66
2023/02/10 02:43:31;;;;;;;;;;;1.20;99.90;;;;;;5048727;28;20046;-67
2023/02/10 02:46:00;;;;;;;;;;;1.20;99.90;;;;;;5048163;28;20011;-67
2023/02/10 02:48:43;;;;;;;;;;;1.10;99.90;;;;;;5049244;28;20031;-66
2023/02/10 02:51:13;;;;;;;;;;;1.10;99.90;;;;;;5050882;28;23340;-67
2023/02/10 02:53:43;;;;;;;;;;;1.10;99.90;;;;;;5054137;28;19936;-67
2023/02/10 02:56:15;;;;;;;;;;;1.00;99.90;;;;;;5057304;28;19932;-67
2023/02/10 02:58:46;;;;;;;;;;;0.90;99.90;;;;;;5057187;28;19936;-67
2023/02/10 03:01:14;;;;;;;;;;;0.80;99.90;;;;;;5058476;28;20028;-67
2023/02/10 03:03:42;;;;;;;;;;;0.80;99.90;;;;;;5054243;28;19932;-68
2023/02/10 03:06:09;;;;;;;;;;;0.70;99.90;;;;;;5058125;28;19933;-67
2023/02/10 03:08:37;;;;;;;;;;;0.70;99.90;;;;;;5055684;28;20379;-67
2023/02/10 03:11:04;;;;;;;;;;;0.70;99.90;;;;;;5060200;28;19929;-67
2023/02/10 03:13:31;;;;;;;;;;;0.60;99.90;;;;;;5056359;28;20015;-67
2023/02/10 03:15:58;;;;;;;;;;;0.60;99.90;;;;;;5059715;28;19930;-67
2023/02/10 03:18:25;;;;;;;;;;;0.60;99.90;;;;;;5053711;28;19934;-67
2023/02/10 03:20:53;;;;;;;;;;;0.60;99.90;;;;;;5055529;28;19976;-67
2023/02/10 03:23:19;;;;;;;;;;;0.60;99.90;;;;;;5055126;28;19933;-67
2023/02/10 03:25:46;;;;;;;;;;;0.60;99.90;;;;;;5057148;28;19933;-67
2023/02/10 03:28:13;;;;;;;;;;;0.60;99.90;;;;;;5055363;28;19933;-67
2023/02/10 03:30:41;;;;;;;;;;;0.60;99.90;;;;;;5056266;28;19943;-67
2023/02/10 03:33:08;;;;;;;;;;;0.60;99.90;;;;;;5055298;28;20391;-66
2023/02/10 03:35:36;;;;;;;;;;;0.60;99.90;;;;;;5056232;28;19928;-67
2023/02/10 03:38:04;;;;;;;;;;;0.60;99.90;;;;;;5056210;28;19932;-66
2023/02/10 03:40:31;;;;;;;;;;;0.70;99.90;;;;;;5054482;28;20020;-67
2023/02/10 03:42:57;;;;;;;;;;;0.70;99.90;;;;;;5055461;28;19997;-66
2023/02/10 03:45:24;;;;;;;;;;;0.70;99.90;;;;;;5052408;28;20391;-66
2023/02/10 03:47:51;;;;;;;;;;;0.70;99.90;;;;;;5056076;28;19928;-66
2023/02/10 03:50:18;;;;;;;;;;;0.60;99.90;;;;;;5056559;28;19934;-66
2023/02/10 03:52:44;;;;;;;;;;;0.60;99.90;;;;;;5055956;28;20327;-66
2023/02/10 03:55:14;;;;;;;;;;;0.50;99.90;;;;;;5054944;28;20583;-66
2023/02/10 03:57:41;;;;;;;;;;;0.60;99.90;;;;;;5057718;28;19932;-67
2023/02/10 04:00:08;;;;;;;;;;;0.60;99.90;;;;;;5056302;28;20066;-66
2023/02/10 04:02:35;;;;;;;;;;;0.60;99.90;;;;;;5054429;28;19928;-67
2023/02/10 04:05:01;;;;;;;;;;;0.50;99.90;;;;;;5051694;28;19936;-66
2023/02/10 04:07:28;;;;;;;;;;;0.50;99.90;;;;;;5052594;28;19944;-67
2023/02/10 04:09:55;;;;;;;;;;;0.50;99.90;;;;;;5053126;28;19935;-66
2023/02/10 04:12:23;;;;;;;;;;;0.40;99.90;;;;;;5053174;28;20015;-67
2023/02/10 04:14:49;;;;;;;;;;;0.50;99.90;;;;;;5052317;28;20035;-66
2023/02/10 04:17:16;;;;;;;;;;;0.60;99.90;;;;;;5054095;28;19964;-66
2023/02/10 04:19:43;;;;;;;;;;;0.60;99.90;;;;;;5051217;28;19929;-66
2023/02/10 04:22:09;;;;;;;;;;;0.60;99.90;;;;;;5053734;28;19939;-67
2023/02/10 04:24:36;;;;;;;;;;;0.50;99.90;;;;;;5051023;28;20437;-66
2023/02/10 04:27:03;;;;;;;;;;;0.50;99.90;;;;;;5051881;28;20461;-66
2023/02/10 04:29:31;;;;;;;;;;;0.50;99.90;;;;;;5050706;28;20043;-66
2023/02/10 04:31:57;;;;;;;;;;;0.50;99.90;;;;;;5053505;28;19933;-67
2023/02/10 04:34:24;;;;;;;;;;;0.50;99.90;;;;;;5052495;28;19935;-66
2023/02/10 04:36:51;;;;;;;;;;;0.60;99.90;;;;;;5053527;28;20014;-67
2023/02/10 04:39:18;;;;;;;;;;;0.60;99.90;;;;;;5053064;28;19943;-67
2023/02/10 04:41:44;;;;;;;;;;;0.60;99.90;;;;;;5051270;28;19959;-68
2023/02/10 04:44:11;;;;;;;;;;;0.70;99.90;;;;;;5050818;28;19955;-67
2023/02/10 04:46:39;;;;;;;;;;;0.70;99.90;;;;;;5049472;28;20686;-67
2023/02/10 04:49:06;;;;;;;;;;;0.70;99.90;;;;;;5052009;28;19933;-67
2023/02/10 04:51:32;;;;;;;;;;;0.70;99.90;;;;;;5052267;28;20007;-66
2023/02/10 04:53:59;;;;;;;;;;;0.60;99.90;;;;;;5050445;28;19935;-66
2023/02/10 04:56:26;;;;;;;;;;;0.60;99.90;;;;;;5053270;28;19940;-66
2023/02/10 04:58:52;;;;;;;;;;;0.60;99.90;;;;;;5052117;28;19938;-66
2023/02/10 05:01:19;;;;;;;;;;;0.50;99.90;;;;;;5050564;28;19935;-66
2023/02/10 05:03:47;;;;;;;;;;;0.50;99.90;;;;;;5052028;28;19939;-68
2023/02/10 05:06:15;;;;;;;;;;;0.50;99.90;;;;;;5051096;28;19932;-67
2023/02/10 05:08:42;;;;;;;;;;;0.60;99.90;;;;;;5049370;28;19933;-67
2023/02/10 05:11:08;;;;;;;;;;;0.60;99.90;;;;;;5050763;28;19932;-67
2023/02/10 05:13:35;;;;;;;;;;;0.70;99.90;;;;;;5049669;28;19939;-67
2023/02/10 05:16:03;;;;;;;;;;;0.60;99.90;;;;;;5048259;28;19933;-67
2023/02/10 05:18:30;;;;;;;;;;;0.60;99.90;;;;;;5048244;28;19932;-67
2023/02/10 05:20:58;;;;;;;;;;;0.60;99.90;;;;;;5051088;28;19928;-66
2023/02/10 05:23:25;;;;;;;;;;;0.50;99.90;;;;;;5049196;28;19928;-67
2023/02/10 05:25:51;;;;;;;;;;;0.50;99.90;;;;;;5050175;28;19924;-67
2023/02/10 05:28:18;;;;;;;;;;;0.60;99.90;;;;;;5050346;28;19936;-68
2023/02/10 05:30:45;;;;;;;;;;;0.70;99.90;;;;;;5047006;28;19933;-67
2023/02/10 05:33:11;;;;;;;;;;;0.70;99.90;;;;;;5050427;28;19925;-67
2023/02/10 05:35:38;;;;;;;;;;;0.70;99.90;;;;;;5050899;28;19933;-68
2023/02/10 05:38:06;;;;;;;;;;;0.70;99.90;;;;;;5054222;28;19931;-67
2023/02/10 05:40:33;;;;;;;;;;;0.60;99.90;;;;;;5049388;28;19931;-68
2023/02/10 05:42:59;;;;;;;;;;;0.60;99.90;;;;;;5043489;28;19939;-68
2023/02/10 05:45:26;;;;;;;;;;;0.50;99.90;;;;;;5047356;28;19939;-67
2023/02/10 05:47:53;;;;;;;;;;;0.50;99.90;;;;;;5049883;28;19939;-68
2023/02/10 05:50:20;;;;;;;;;;;0.60;99.90;;;;;;5049391;28;20038;-68
2023/02/10 05:52:47;;;;;;;;;;;0.60;99.90;;;;;;5050544;28;20319;-67
2023/02/10 05:55:15;;;;;;;;;;;0.60;99.90;;;;;;5048649;28;19932;-67
2023/02/10 05:57:41;;;;;;;;;;;0.60;99.90;;;;;;5052645;28;20019;-68
2023/02/10 06:00:09;;;;;;;;;;;0.60;99.90;;;;;;5052025;28;19936;-68
2023/02/10 06:02:36;;;;;;;;;;;0.70;99.90;;;;;;5048700;28;19939;-68
2023/02/10 06:05:02;;;;;;;;;;;0.60;99.90;;;;;;5051571;28;20426;-68
2023/02/10 06:07:29;;;;;;;;;;;0.50;99.90;;;;;;5049594;28;20302;-67
2023/02/10 06:09:56;;;;;;;;;;;0.50;99.90;;;;;;5046445;28;19932;-68
2023/02/10 06:12:24;;;;;;;;;;;0.50;99.90;;;;;;5047610;28;20330;-67
2023/02/10 06:14:50;;;;;;;;;;;0.50;99.90;;;;;;5048070;28;19929;-68
2023/02/10 06:17:17;;;;;;;;;;;0.60;99.90;;;;;;5049100;28;20062;-68
2023/02/10 06:19:44;;;;;;;;;;;0.60;99.90;;;;;;5048765;28;19929;-70
2023/02/10 06:22:12;;;;;;;;;;;0.60;99.90;;;;;;5049089;28;19939;-69
2023/02/10 06:24:41;;;;;;;;;;;0.60;99.90;;;;;;5049064;28;19928;-69
2023/02/10 06:27:08;;;;;;;;;;;0.60;99.90;;;;;;5048265;28;19933;-69
2023/02/10 06:29:36;;;;;;;;;;;0.60;99.90;;;;;;5049114;28;19924;-70
2023/02/10 06:32:03;;;;;;;;;;;0.70;99.90;;;;;;5051619;28;19930;-70
2023/02/10 06:34:29;;;;;;;;;;;0.70;99.90;;;;;;5046643;28;19932;-70
2023/02/10 06:36:56;;;;;;;;;;;0.60;99.90;;;;;;5052072;28;19932;-69
2023/02/10 06:39:23;;;;;;;;;;;0.50;99.90;;;;;;5049331;28;20025;-69
2023/02/10 06:41:49;;;;;;;;;;;0.60;99.90;;;;;;5048856;28;19933;-70
2023/02/10 06:44:16;;;;;;;;;;;0.50;99.90;;;;;;5048538;28;19928;-69
2023/02/10 06:46:44;;;;;;;;;;;0.40;99.90;;;;;;5051406;28;19956;-69
2023/02/10 06:49:11;;;;;;;;;;;0.50;99.90;;;;;;5048629;28;19989;-69
2023/02/10 06:51:37;;;;;;;;;;;0.50;99.90;;;;;;5047633;28;20050;-70
2023/02/10 06:54:04;;;;;;;;;;;0.60;99.90;;;;;;5049163;28;19972;-69
2023/02/10 06:56:31;;;;;;;;;;;0.60;99.90;;;;;;5051978;28;19951;-70
2023/02/10 06:58:57;;;;;;;;;;;0.60;99.90;;;;;;5048232;28;20434;-69
2023/02/10 07:01:24;;;;;;;;;;;0.60;99.90;;;;;;5046653;28;19934;-69
2023/02/10 07:03:53;;;;;;;;;;;0.60;99.90;;;;;;5048607;28;19932;-70
2023/02/10 07:06:19;;;;;;;;;;;0.70;99.90;;;;;;5052482;28;20028;-71
2023/02/10 07:08:46;;;;;;;;;;;0.70;99.90;;;;;;5047464;28;19932;-70
2023/02/10 07:11:13;;;;;;;;;;;0.70;99.90;;;;;;5049329;28;19948;-70
2023/02/10 07:13:40;;;;;;;;;;;0.70;99.90;;;;;;5051916;28;20061;-71
2023/02/10 07:16:07;;;;;;;;;;;0.70;99.90;;;;;;5055070;28;19944;-69
2023/02/10 07:18:33;;;;;;;;;;;0.70;99.90;;;;;;5049970;28;20050;-71
2023/02/10 07:21:01;;;;;;;;;;;0.80;99.90;;;;;;5048808;28;19924;-70
2023/02/10 07:23:28;;;;;;;;;;;0.80;99.90;;;;;;5047030;28;19976;-71
2023/02/10 07:25:55;;;;;;;;;;;0.80;99.90;;;;;;5051355;28;20395;-71
2023/02/10 07:28:21;;;;;;;;;;;0.90;99.90;;;;;;5051844;28;19989;-72
2023/02/10 07:30:48;;;;;;;;;;;0.90;99.90;;;;;;5053357;28;19929;-71
2023/02/10 07:33:15;;;;;;;;;;;1.00;99.90;;;;;;5052810;28;19940;-71
2023/02/10 07:35:42;;;;;;;;;;;1.00;99.90;;;;;;5052223;28;19935;-70
2023/02/10 07:38:09;;;;;;;;;;;1.00;99.90;;;;;;5049271;28;20307;-71
2023/02/10 07:40:36;;;;;;;;;;;1.10;99.90;;;;;;5053103;28;19931;-71
2023/02/10 07:43:03;;;;;;;;;;;1.20;99.90;;;;;;5052628;28;19946;-70
2023/02/10 07:45:30;;;;;;;;;;;1.30;99.90;;;;;;5051121;28;19968;-70
2023/02/10 07:47:57;;;;;;;;;;;1.30;99.90;;;;;;5050534;28;20784;-69
2023/02/10 07:50:24;;;;;;;;;;;1.30;99.90;;;;;;5053671;28;19932;-70
2023/02/10 07:52:50;;;;;;;;;;;1.40;99.90;;;;;;5055068;28;19925;-70
2023/02/10 07:55:18;;;;;;;;;;;1.50;99.90;;;;;;5053451;28;19934;-71
2023/02/10 07:57:45;;;;;;;;;;;1.50;99.90;;;;;;5053170;28;19938;-69
2023/02/10 08:00:13;;;;;;;;;;;1.60;99.90;;;;;;5054119;28;19954;-70
2023/02/10 08:02:40;;;;;;;;;;;1.60;99.90;;;;;;5056329;28;19939;-70
2023/02/10 08:05:07;;;;;;;;;;;1.70;99.90;;;;;;5051572;28;19943;-71
2023/02/10 08:07:33;;;;;;;;;;;1.70;99.90;;;;;;5053233;28;19932;-70
2023/02/10 08:10:00;;;;;;;;;;;1.70;99.90;;;;;;5053522;28;19938;-70
2023/02/10 08:12:28;;;;;;;;;;;1.80;99.90;;;;;;5050271;28;19933;-70
2023/02/10 08:14:55;;;;;;;;;;;1.80;99.90;;;;;;5058633;28;20400;-70
2023/02/10 08:17:21;;;;;;;;;;;1.90;99.90;;;;;;5050404;28;20392;-70
2023/02/10 08:19:48;;;;;;;;;;;2.10;99.90;;;;;;5053154;28;19928;-70
2023/02/10 08:22:15;;;;;;;;;;;2.30;99.90;;;;;;5057265;28;20020;-72
2023/02/10 08:24:42;;;;;;;;;;;2.50;99.90;;;;;;5054546;28;19995;-70
2023/02/10 08:27:08;;;;;;;;;;;2.70;99.90;;;;;;5054716;28;20257;-70
2023/02/10 08:29:36;;;;;;;;;;;2.70;99.90;;;;;;5053468;28;20645;-71
2023/02/10 08:32:03;;;;;;;;;;;3.20;99.90;;;;;;5055377;28;19932;-71
2023/02/10 08:34:30;;;;;;;;;;;4.00;99.90;;;;;;5053559;28;20031;-70
2023/02/10 08:36:57;;;;;;;;;;;3.80;99.90;;;;;;5055013;28;19943;-71
2023/02/10 08:39:24;;;;;;;;;;;3.70;99.90;;;;;;5052382;28;19935;-69
2023/02/10 08:41:50;;;;;;;;;;;3.90;99.90;;;;;;5051065;28;19933;-69
2023/02/10 08:44:17;;;;;;;;;;;4.00;99.90;;;;;;5051353;28;19935;-69
2023/02/10 08:46:45;;;;;;;;;;;4.00;99.90;;;;;;5051649;28;19937;-69
2023/02/10 08:49:12;;;;;;;;;;;3.80;99.90;;;;;;5050020;28;20410;-69
2023/02/10 08:51:39;;;;;;;;;;;3.60;99.90;;;;;;5053941;28;19933;-69
2023/02/10 08:54:06;;;;;;;;;;;3.60;99.90;;;;;;5057952;28;19931;-70
2023/02/10 08:56:33;;;;;;;;;;;3.40;99.90;;;;;;5053122;28;20418;-70
2023/02/10 08:59:00;;;;;;;;;;;3.40;99.90;;;;;;5048420;28;20074;-69
2023/02/10 09:01:27;;;;;;;;;;;3.40;99.90;;;;;;5049910;28;20392;-69
2023/02/10 09:03:55;;;;;;;;;;;3.40;99.90;;;;;;5052324;28;19984;-71
2023/02/10 09:06:23;;;;;;;;;;;3.60;99.90;;;;;;5052372;28;19932;-71
2023/02/10 09:08:52;;;;;;;;;;;3.80;99.90;;;;;;5053156;28;20339;-71
2023/02/10 09:11:19;;;;;;;;;;;3.80;99.90;;;;;;5057829;28;19933;-70
2023/02/10 09:13:56;;;;;;;;;;;3.70;99.90;;;;;;5055411;28;22066;-71
2023/02/10 09:16:25;;;;;;;;;;;3.70;99.90;;;;;;5054646;28;19970;-69
2023/02/10 09:18:52;;;;;;;;;;;3.60;99.90;;;;;;5052036;28;19933;-70
2023/02/10 09:21:20;;;;;;;;;;;3.50;99.90;;;;;;5055964;28;19933;-70
2023/02/10 09:23:47;;;;;;;;;;;3.60;99.90;;;;;;5052083;28;19932;-69
2023/02/10 09:26:14;;;;;;;;;;;3.60;99.90;;;;;;5052920;28;20407;-69
2023/02/10 09:28:40;;;;;;;;;;;3.60;99.90;;;;;;5053162;28;20350;-70
2023/02/10 09:31:08;;;;;;;;;;;3.70;99.90;;;;;;5054867;28;20019;-70
2023/02/10 09:33:36;;;;;;;;;;;3.70;99.90;;;;;;5053156;28;19933;-69
2023/02/10 09:36:03;;;;;;;;;;;3.80;99.90;;;;;;5054535;28;20601;-69
2023/02/10 09:38:33;;;;;;;;;;;3.80;99.90;;;;;;5053149;28;19935;-68
2023/02/10 09:41:09;;;;;;;;;;;3.80;99.90;;;;;;5052629;28;20343;-69
2023/02/10 09:43:50;;;;;;;;;;;3.80;99.90;;;;;;5052092;28;19934;-69
2023/02/10 09:46:21;;;;;;;;;;;3.80;99.90;;;;;;5054088;28;20028;-72
2023/02/10 09:48:56;;;;;;;;;;;3.80;99.90;;;;;;5049912;28;19936;-69
2023/02/10 09:51:30;;;;;;;;;;;3.80;99.90;;;;;;5053277;28;19931;-69
2023/02/10 09:53:58;;;;;;;;;;;3.80;99.90;;;;;;5055355;28;19932;-69
2023/02/10 09:56:25;;;;;;;;;;;3.80;99.90;;;;;;5052351;28;19963;-69
2023/02/10 09:58:53;;;;;;;;;;;3.90;99.90;;;;;;5049231;28;19939;-68
2023/02/10 10:01:22;;;;;;;;;;;4.00;99.90;;;;;;5050699;28;19942;-69
2023/02/10 10:03:50;;;;;;;;;;;4.10;99.90;;;;;;5050848;28;19930;-70
2023/02/10 10:06:21;;;;;;;;;;;4.20;99.90;;;;;;5051369;28;20459;-70
2023/02/10 10:08:54;;;;;;;;;;;4.20;99.90;;;;;;5049653;28;19934;-70
2023/02/10 10:11:25;;;;;;;;;;;4.20;99.90;;;;;;5050816;28;19932;-70
2023/02/10 10:13:52;;;;;;;;;;;4.20;99.90;;;;;;5052460;28;19952;-69
2023/02/10 10:16:23;;;;;;;;;;;4.30;99.90;;;;;;5050764;28;19967;-69
2023/02/10 10:18:57;;;;;;;;;;;4.50;99.90;;;;;;5049853;28;20307;-70
2023/02/10 10:21:26;;;;;;;;;;;4.60;99.90;;;;;;5049012;28;20034;-68
2023/02/10 10:23:58;;;;;;;;;;;4.60;99.90;;;;;;5051568;28;19935;-67
2023/02/10 10:26:37;;;;;;;;;;;4.70;99.90;;;;;;5051529;28;20021;-68
2023/02/10 10:29:10;;;;;;;;;;;4.80;99.90;;;;;;5050413;28;20412;-68
2023/02/10 10:31:38;;;;;;;;;;;4.80;99.90;;;;;;5051878;28;20023;-68
2023/02/10 10:34:09;;;;;;;;;;;5.00;99.90;;;;;;5053802;28;19932;-69
2023/02/10 10:36:37;;;;;;;;;;;5.10;99.90;;;;;;5055018;28;19932;-70
2023/02/10 10:39:10;;;;;;;;;;;5.10;99.90;;;;;;5052333;28;19954;-70
2023/02/10 10:41:38;;;;;;;;;;;5.10;99.90;;;;;;5052092;28;19934;-69
2023/02/10 10:44:05;;;;;;;;;;;5.00;99.90;;;;;;5051433;28;19933;-71
2023/02/10 10:46:35;;;;;;;;;;;4.90;99.90;;;;;;5050519;28;19935;-70
2023/02/10 10:49:02;;;;;;;;;;;5.00;99.90;;;;;;5051130;28;19941;-70
2023/02/10 10:51:29;;;;;;;;;;;5.10;99.90;;;;;;5052090;28;20026;-70
2023/02/10 10:53:57;;;;;;;;;;;5.20;99.90;;;;;;5052918;28;19939;-70
2023/02/10 10:56:29;;;;;;;;;;;5.30;99.90;;;;;;5051689;28;20119;-70
2023/02/10 10:58:58;;;;;;;;;;;5.30;99.90;;;;;;5051126;28;19924;-69
2023/02/10 11:01:32;;;;;;;;;;;5.20;99.90;;;;;;5052632;28;19968;-70
2023/02/10 11:04:03;;;;;;;;;;;5.20;99.90;;;;;;5051422;28;19929;-70
2023/02/10 11:06:33;;;;;;;;;;;5.10;99.90;;;;;;5051919;28;20015;-70
2023/02/10 11:09:00;;;;;;;;;;;5.10;99.90;;;;;;5052264;28;19933;-69
2023/02/10 11:11:32;;;;;;;;;;;5.00;99.90;;;;;;5053137;28;20503;-69
2023/02/10 11:14:01;;;;;;;;;;;5.00;99.90;;;;;;5054225;28;19931;-69
2023/02/10 11:16:28;;;;;;;;;;;5.10;99.90;;;;;;5058139;28;20033;-69
2023/02/10 11:18:56;;;;;;;;;;;5.20;99.90;;;;;;5057674;28;19999;-71
2023/02/10 11:21:33;;;;;;;;;;;5.20;99.90;;;;;;5055357;28;19959;-69
2023/02/10 11:24:00;;;;;;;;;;;5.30;99.90;;;;;;5063021;28;19929;-71
2023/02/10 11:26:27;;;;;;;;;;;5.30;99.90;;;;;;5052714;28;19994;-69
2023/02/10 11:28:54;;;;;;;;;;;5.30;99.90;;;;;;5057294;28;20366;-70
2023/02/10 11:31:31;;;;;;;;;;;5.30;99.90;;;;;;5056906;28;19935;-69
2023/02/10 11:33:59;;;;;;;;;;;5.20;99.90;;;;;;5055150;28;20384;-70
2023/02/10 11:36:35;;;;;;;;;;;5.30;99.90;;;;;;5060745;28;19935;-69
2023/02/10 11:39:03;;;;;;;;;;;5.40;99.90;;;;;;5055401;28;20015;-69
2023/02/10 11:41:30;;;;;;;;;;;5.40;99.90;;;;;;5058640;28;19943;-69
2023/02/10 11:43:57;;;;;;;;;;;5.50;99.90;;;;;;5054441;28;19932;-68
2023/02/10 11:46:25;;;;;;;;;;;5.50;99.90;;;;;;5057166;28;20551;-69
2023/02/10 11:48:57;;;;;;;;;;;5.60;99.90;;;;;;5054755;28;19924;-69
2023/02/10 11:51:24;;;;;;;;;;;5.70;99.90;;;;;;5057665;28;20019;-69
2023/02/10 11:53:51;;;;;;;;;;;5.80;99.90;;;;;;5055146;28;19937;-69
2023/02/10 11:56:21;;;;;;;;;;;5.80;99.90;;;;;;5054452;28;19936;-69
2023/02/10 11:58:59;;;;;;;;;;;5.80;99.90;;;;;;5056507;28;19924;-70
2023/02/10 12:01:31;;;;;;;;;;;6.00;99.90;;;;;;5057667;28;20398;-71
2023/02/10 12:04:02;;;;;;;;;;;6.10;99.90;;;;;;5056801;28;20086;-70
2023/02/10 12:06:33;;;;;;;;;;;6.20;99.90;;;;;;5058141;28;20016;-69
2023/02/10 12:09:02;;;;;;;;;;;6.20;99.90;;;;;;5056685;28;19928;-70
2023/02/10 12:11:36;;;;;;;;;;;6.20;99.90;;;;;;5056852;28;19982;-70
2023/02/10 12:14:06;;;;;;;;;;;6.20;99.90;;;;;;5055361;28;19932;-68
2023/02/10 12:16:37;;;;;;;;;;;6.20;99.90;;;;;;5054108;28;19929;-70
2023/02/10 12:19:14;;;;;;;;;;;6.20;99.90;;;;;;5053516;28;19932;-69
2023/02/10 12:21:46;;;;;;;;;;;6.20;99.90;;;;;;5055171;28;19933;-70
2023/02/10 12:24:21;;;;;;;;;;;6.20;99.90;;;;;;5060417;28;19928;-69
2023/02/10 12:26:51;;;;;;;;;;;6.30;99.90;;;;;;5052792;28;19935;-69
2023/02/10 12:29:24;;;;;;;;;;;6.40;99.90;;;;;;5052523;28;19925;-71
2023/02/10 12:31:54;;;;;;;;;;;6.40;99.90;;;;;;5052804;28;19932;-70
2023/02/10 12:34:46;;;;;;;;;;;6.50;99.90;;;;;;5052744;28;22588;-71
2023/02/10 12:37:19;;;;;;;;;;;6.60;99.90;;;;;;5055165;28;19932;-70
2023/02/10 12:39:51;;;;;;;;;;;6.60;99.90;;;;;;5053804;28;19929;-70
2023/02/10 12:42:27;;;;;;;;;;;6.60;99.90;;;;;;5055328;28;19936;-71
2023/02/10 12:44:58;;;;;;;;;;;6.60;99.90;;;;;;5053975;28;20302;-70
2023/02/10 12:47:32;;;;;;;;;;;6.50;99.90;;;;;;5053345;28;20354;-70
2023/02/10 12:50:13;;;;;;;;;;;6.50;99.90;;;;;;5052733;28;19932;-70
2023/02/10 12:52:41;;;;;;;;;;;6.40;99.90;;;;;;5055492;28;20869;-69
2023/02/10 12:55:13;;;;;;;;;;;6.30;99.90;;;;;;5055412;28;19928;-69
2023/02/10 12:57:42;;;;;;;;;;;6.30;99.90;;;;;;5055790;28;19932;-70
2023/02/10 13:00:13;;;;;;;;;;;6.30;99.90;;;;;;5056096;28;19934;-69
2023/02/10 13:02:41;;;;;;;;;;;6.30;99.90;;;;;;5055834;28;19936;-70
2023/02/10 13:05:11;;;;;;;;;;;6.30;99.90;;;;;;5052590;28;19934;-71
2023/02/10 13:07:43;;;;;;;;;;;6.30;99.90;;;;;;5053889;28;19956;-70
2023/02/10 13:10:17;;;;;;;;;;;6.20;99.90;;;;;;5051574;28;19941;-70
2023/02/10 13:12:46;;;;;;;;;;;6.20;99.90;;;;;;5053989;28;19933;-70
2023/02/10 13:15:14;;;;;;;;;;;6.30;99.90;;;;;;5053901;28;19942;-70
2023/02/10 13:17:43;;;;;;;;;;;6.30;99.90;;;;;;5052838;28;19935;-70
2023/02/10 13:20:19;;;;;;;;;;;6.30;99.90;;;;;;5051893;28;20070;-71
2023/02/10 13:22:49;;;;;;;;;;;6.30;99.90;;;;;;5053470;28;20419;-70
2023/02/10 13:25:17;;;;;;;;;;;6.30;99.90;;;;;;5057069;28;19933;-70
2023/02/10 13:27:49;;;;;;;;;;;6.30;99.90;;;;;;5054611;28;19928;-70
2023/02/10 13:30:37;;;;;;;;;;;6.40;99.90;;;;;;5052840;28;19939;-71
2023/02/10 13:33:05;;;;;;;;;;;6.50;99.90;;;;;;5050868;28;21636;-70
2023/02/10 13:35:34;;;;;;;;;;;6.50;99.90;;;;;;5052052;28;19944;-70
2023/02/10 13:38:06;;;;;;;;;;;6.50;99.90;;;;;;5052649;28;20391;-70
2023/02/10 13:40:34;;;;;;;;;;;6.50;99.90;;;;;;5051930;28;19932;-70
2023/02/10 13:43:02;;;;;;;;;;;6.50;99.90;;;;;;5053264;28;19929;-70
2023/02/10 13:45:30;;;;;;;;;;;6.50;99.90;;;;;;5051923;28;20724;-70
2023/02/10 13:47:58;;;;;;;;;;;6.70;99.90;;;;;;5051906;28;19925;-70
2023/02/10 13:50:30;;;;;;;;;;;6.70;99.90;;;;;;5054676;28;20378;-70
2023/02/10 13:53:00;;;;;;;;;;;6.60;99.90;;;;;;5052860;28;20097;-69
2023/02/10 13:55:43;;;;;;;;;;;6.70;99.90;;;;;;5052506;28;19930;-70
2023/02/10 13:58:26;;;;;;;;;;;6.70;99.90;;;;;;5051414;28;19941;-69
2023/02/10 14:00:55;;;;;;;;;;;6.80;99.90;;;;;;5052613;28;19924;-70
2023/02/10 14:03:23;;;;;;;;;;;6.90;99.90;;;;;;5052468;28;19928;-70
2023/02/10 14:05:55;;;;;;;;;;;6.90;99.90;;;;;;5052624;28;21077;-70
2023/02/10 14:08:28;;;;;;;;;;;7.00;99.90;;;;;;5054032;28;19928;-71
2023/02/10 14:10:57;;;;;;;;;;;7.10;99.90;;;;;;5055298;28;19930;-70
2023/02/10 14:13:26;;;;;;;;;;;7.00;99.90;;;;;;5052411;28;19929;-68
2023/02/10 14:15:56;;;;;;;;;;;7.00;99.90;;;;;;5050602;28;19933;-70
2023/02/10 14:18:24;;;;;;;;;;;7.00;99.90;;;;;;5050255;28;19929;-70
2023/02/10 14:20:55;;;;;;;;;;;7.00;99.90;;;;;;5050303;28;19928;-70
2023/02/10 14:23:23;;;;;;;;;;;7.00;99.90;;;;;;5049948;28;20027;-70
2023/02/10 14:25:55;;;;;;;;;;;7.00;99.90;;;;;;5050066;28;19932;-72
2023/02/10 14:28:23;;;;;;;;;;;7.00;99.90;;;;;;5049491;28;19929;-72
2023/02/10 14:30:52;;;;;;;;;;;7.00;99.90;;;;;;5048111;28;19939;-69
2023/02/10 14:33:21;;;;;;;;;;;7.10;99.90;;;;;;5049101;28;20891;-71
2023/02/10 14:35:51;;;;;;;;;;;7.20;99.90;;;;;;5053530;28;20479;-71
2023/02/10 14:38:20;;;;;;;;;;;7.10;99.90;;;;;;5052708;28;19939;-70
2023/02/10 14:40:47;;;;;;;;;;;7.20;99.90;;;;;;5053681;28;19936;-71